Bradshaw Army Airfield Camp Pohakuloa US
ICAO: PHSF
IATA:
Category: Medium
Scheduled Services:

Elevation: 6190 ft
TransAlt. 18000 ft.

Airport Communications:
HONOLULU CNTR:126
ATIS:124.7
CTAF:126.3
RANGE:38.3
PMSV METRO:122.75
HONOLULU RDO:25.54
TWR:41.5

PHSF Zoom In..

Runways:

(A) RW 09 length 3695 ft width 90 ft
---- / hdg 91

(B) RW 27 length 3695 ft width 90 ft
---- / hdg 271

Location; PHSF
Day. 22 / Time. 02.16 Zulu
* Altimeter: 30.31
* Temperature: 21° c. 69.8°f.
* Wind from: 210° Speed 06 kn.
Dewpoint: 12° c.
Visibility: 10 Statute Miles.
Clouds: Few 1900 ft.
Clouds: Scattered 2200 ft.

PHSF 220216Z AUTO 21006KT 10SM FEW019 SCT022 21/12 A3031 RMK AO2 SLPNO WND DATA ESTMD $


Wind From 210°
Speed 06 kn.

 
 
jpsmedia.com for Web Design SOUNDCLOUD worldairports.se 2018   terms of use